Time;durP1;ratioP1;P1;durP2;ratioP2;P2;SDS_P1;SDS_P2;PMS_P1;PMS_P2;Temp;Humidity;BMP_temperature;BMP_pressure;BME280_temperature;BME280_humidity;BME280_pressure;Samples;Min_cycle;Max_cycle;Signal;HPM_P1;HPM_P2
2021/08/01 00:01:40;;;;;;;28.67;27.00;;;19.20;80.50;;;;;;5036824;28;20851;-73
2021/08/01 00:04:07;;;;;;;28.17;26.70;;;19.10;81.40;;;;;;5035134;28;20983;-73
2021/08/01 00:06:34;;;;;;;29.67;28.07;;;19.00;81.80;;;;;;5042145;28;20468;-73
2021/08/01 00:09:02;;;;;;;28.33;26.77;;;19.00;82.30;;;;;;5036849;28;20543;-73
2021/08/01 00:11:31;;;;;;;28.37;26.87;;;18.80;82.90;;;;;;5043945;28;20537;-73
2021/08/01 00:13:58;;;;;;;27.13;25.63;;;18.70;84.00;;;;;;5041150;28;20538;-73
2021/08/01 00:16:25;;;;;;;27.73;26.10;;;18.60;84.80;;;;;;5042555;28;20483;-73
2021/08/01 00:18:52;;;;;;;27.57;25.73;;;18.60;84.60;;;;;;5034417;28;20451;-73
2021/08/01 00:21:19;;;;;;;27.83;26.20;;;18.60;84.70;;;;;;5046321;28;20462;-73
2021/08/01 00:23:46;;;;;;;28.57;26.77;;;18.50;84.50;;;;;;5042250;28;20451;-73
2021/08/01 00:26:14;;;;;;;28.60;26.90;;;18.50;84.50;;;;;;5044580;28;20475;-73
2021/08/01 00:28:41;;;;;;;28.00;26.10;;;18.50;84.80;;;;;;5032387;28;20478;-73
2021/08/01 00:31:07;;;;;;;27.50;25.83;;;18.50;84.90;;;;;;5040873;28;20467;-73
2021/08/01 00:33:34;;;;;;;25.97;24.33;;;18.50;85.20;;;;;;5034143;28;20455;-73
2021/08/01 00:36:01;;;;;;;25.60;24.20;;;18.40;85.30;;;;;;5046218;28;20482;-73
2021/08/01 00:38:28;;;;;;;26.50;25.10;;;18.30;84.60;;;;;;5033848;28;20482;-73
2021/08/01 00:40:55;;;;;;;27.20;25.50;;;18.30;84.40;;;;;;5042512;28;20458;-73
2021/08/01 00:43:23;;;;;;;25.30;23.80;;;18.30;84.20;;;;;;5044145;28;20989;-73
2021/08/01 00:45:50;;;;;;;26.30;24.53;;;18.30;84.40;;;;;;5043217;28;21002;-73
2021/08/01 00:48:17;;;;;;;25.93;24.40;;;18.30;84.60;;;;;;5041681;28;20947;-73
2021/08/01 00:50:44;;;;;;;24.10;22.80;;;18.20;84.30;;;;;;5041308;28;20476;-73
2021/08/01 00:53:12;;;;;;;26.83;25.30;;;18.20;84.20;;;;;;5044415;28;20465;-73
2021/08/01 00:55:40;;;;;;;26.13;24.30;;;18.20;84.40;;;;;;5042367;28;20543;-73
2021/08/01 00:58:07;;;;;;;25.60;24.10;;;18.20;85.20;;;;;;5032375;28;20468;-73
2021/08/01 01:03:26;;;;;;;25.03;23.53;;;18.20;85.70;;;;;;5051374;28;20454;-73
2021/08/01 01:05:58;;;;;;;25.70;24.30;;;18.20;86.30;;;;;;5044930;28;20489;-73
2021/08/01 01:08:30;;;;;;;26.23;24.00;;;18.10;86.70;;;;;;5047556;28;20961;-73
2021/08/01 01:10:59;;;;;;;24.43;23.13;;;18.20;86.80;;;;;;5045899;28;21035;-73
2021/08/01 01:13:29;;;;;;;24.87;23.27;;;18.10;87.10;;;;;;5040220;28;20463;-73
2021/08/01 01:16:02;;;;;;;24.90;23.40;;;18.10;87.60;;;;;;5045306;28;20479;-73
2021/08/01 01:18:34;;;;;;;24.30;23.00;;;18.10;87.70;;;;;;5041351;28;20973;-73
2021/08/01 01:21:21;;;;;;;24.10;22.50;;;18.10;88.00;;;;;;5044367;28;20459;-73
2021/08/01 01:23:53;;;;;;;25.60;23.77;;;18.10;87.90;;;;;;5041054;28;20451;-73
2021/08/01 01:26:27;;;;;;;24.40;22.80;;;17.90;88.40;;;;;;5047356;28;20477;-73
2021/08/01 01:29:05;;;;;;;24.63;23.20;;;17.90;88.70;;;;;;5047219;28;20473;-73
2021/08/01 01:31:40;;;;;;;24.23;22.90;;;17.80;88.80;;;;;;5045677;28;20462;-73
2021/08/01 01:34:13;;;;;;;23.10;21.50;;;17.80;88.70;;;;;;5042255;28;20455;-73
2021/08/01 01:36:44;;;;;;;24.37;22.97;;;17.80;88.90;;;;;;5045326;28;20881;-73
2021/08/01 01:39:12;;;;;;;23.90;22.40;;;17.80;89.10;;;;;;5044074;28;20457;-73
2021/08/01 01:41:43;;;;;;;24.10;22.60;;;17.80;89.10;;;;;;5049048;28;21035;-73
2021/08/01 01:44:11;;;;;;;24.07;22.67;;;17.80;89.00;;;;;;5045907;28;20456;-73
2021/08/01 01:46:38;;;;;;;23.47;22.23;;;17.80;88.70;;;;;;5045909;28;20844;-73
2021/08/01 01:49:07;;;;;;;23.77;22.37;;;17.70;89.10;;;;;;5042458;28;20828;-73
2021/08/01 01:51:35;;;;;;;23.30;21.80;;;17.60;89.40;;;;;;5044815;28;20867;-73
2021/08/01 01:54:05;;;;;;;23.30;21.90;;;17.60;89.80;;;;;;5042543;28;20549;-73
2021/08/01 01:56:35;;;;;;;24.80;23.17;;;17.70;89.90;;;;;;5034954;28;20829;-73
2021/08/01 01:59:02;;;;;;;23.47;22.07;;;17.70;89.90;;;;;;5049176;28;20459;-73
2021/08/01 02:01:29;;;;;;;23.03;21.67;;;17.70;90.10;;;;;;5046253;28;20459;-73
2021/08/01 02:03:56;;;;;;;22.87;21.53;;;17.80;89.70;;;;;;5048371;28;21016;-73
2021/08/01 02:06:23;;;;;;;23.00;21.67;;;17.70;89.80;;;;;;5039508;28;20507;-73
2021/08/01 02:09:09;;;;;;;24.17;22.33;;;17.70;89.80;;;;;;5044728;28;20564;-73
2021/08/01 02:11:45;;;;;;;22.97;21.53;;;17.60;90.00;;;;;;5043288;28;20910;-73
2021/08/01 02:14:17;;;;;;;22.67;21.13;;;17.60;90.50;;;;;;5036975;28;20459;-73
2021/08/01 02:16:49;;;;;;;21.67;20.57;;;17.60;90.80;;;;;;5047286;28;20483;-73
2021/08/01 02:19:17;;;;;;;22.80;21.47;;;17.50;91.20;;;;;;5048631;28;20456;-73
2021/08/01 02:21:45;;;;;;;22.80;21.27;;;17.50;91.20;;;;;;5042179;28;20542;-73
2021/08/01 02:24:13;;;;;;;22.27;20.97;;;17.50;91.20;;;;;;5044602;28;20462;-73
2021/08/01 02:26:43;;;;;;;22.43;21.03;;;17.50;91.20;;;;;;5046478;28;20463;-73
2021/08/01 02:29:12;;;;;;;22.23;21.03;;;17.40;91.20;;;;;;5034824;28;20556;-73
2021/08/01 02:31:39;;;;;;;22.47;21.17;;;17.40;91.50;;;;;;5043818;28;20459;-73
2021/08/01 02:34:06;;;;;;;23.70;22.20;;;17.40;91.50;;;;;;5046968;28;20800;-73
2021/08/01 02:36:34;;;;;;;22.17;20.83;;;17.40;91.50;;;;;;5044311;28;20483;-73
2021/08/01 02:39:02;;;;;;;22.63;21.17;;;17.50;91.50;;;;;;5041442;28;20451;-73
2021/08/01 02:41:32;;;;;;;23.63;22.23;;;17.50;91.60;;;;;;5040603;28;20464;-73
2021/08/01 02:44:10;;;;;;;22.70;21.20;;;17.60;91.70;;;;;;5046647;28;20468;-73
2021/08/01 02:46:39;;;;;;;21.77;20.47;;;17.60;91.40;;;;;;5047591;28;20464;-73
2021/08/01 02:49:11;;;;;;;21.40;20.20;;;17.70;91.10;;;;;;5042729;28;20821;-73
2021/08/01 02:51:38;;;;;;;22.30;20.80;;;17.60;91.00;;;;;;5043184;28;20976;-73
2021/08/01 02:54:06;;;;;;;22.37;21.07;;;17.60;91.20;;;;;;5044887;28;20447;-73
2021/08/01 02:56:35;;;;;;;22.17;20.97;;;17.60;91.40;;;;;;5041744;28;20513;-73
2021/08/01 02:59:07;;;;;;;23.00;21.30;;;17.50;91.90;;;;;;5049479;28;20451;-73
2021/08/01 03:01:36;;;;;;;21.60;20.40;;;17.50;92.00;;;;;;5039889;28;20458;-73
2021/08/01 03:04:05;;;;;;;22.07;20.87;;;17.50;91.90;;;;;;5040410;28;20474;-73
2021/08/01 03:06:34;;;;;;;22.10;20.80;;;17.50;91.80;;;;;;5036797;28;20479;-73
2021/08/01 03:09:03;;;;;;;21.70;20.30;;;17.50;91.90;;;;;;5036759;28;20509;-73
2021/08/01 03:11:34;;;;;;;21.97;20.17;;;17.50;92.10;;;;;;5044587;28;20858;-73
2021/08/01 03:14:01;;;;;;;22.50;21.10;;;17.50;92.20;;;;;;5041051;28;20463;-73
2021/08/01 03:16:29;;;;;;;22.23;20.77;;;17.50;92.20;;;;;;5044477;28;20482;-73
2021/08/01 03:18:56;;;;;;;22.90;21.27;;;17.50;92.40;;;;;;5042283;28;20562;-73
2021/08/01 03:21:23;;;;;;;21.97;20.77;;;17.50;92.10;;;;;;5039899;28;20467;-73
2021/08/01 03:23:51;;;;;;;21.77;20.47;;;17.50;92.20;;;;;;5038483;28;20468;-73
2021/08/01 03:26:17;;;;;;;21.50;20.40;;;17.50;92.00;;;;;;5044830;28;20569;-73
2021/08/01 03:28:44;;;;;;;21.63;20.40;;;17.50;91.60;;;;;;5039887;28;20465;-73
2021/08/01 03:31:11;;;;;;;20.93;19.60;;;17.50;91.40;;;;;;5038900;28;20828;-73
2021/08/01 03:33:39;;;;;;;22.30;20.73;;;17.50;91.20;;;;;;5041603;28;20469;-73
2021/08/01 03:36:06;;;;;;;21.10;19.97;;;17.50;91.00;;;;;;5039836;28;20486;-73
2021/08/01 03:38:33;;;;;;;22.30;20.77;;;17.50;90.70;;;;;;5040271;28;20615;-73
2021/08/01 03:41:00;;;;;;;22.00;20.80;;;17.50;90.50;;;;;;5041477;28;20459;-73
2021/08/01 03:43:27;;;;;;;21.57;20.17;;;17.50;90.40;;;;;;5044061;28;20462;-73
2021/08/01 03:45:54;;;;;;;22.97;21.57;;;17.50;90.40;;;;;;5045487;28;20480;-72
2021/08/01 03:48:21;;;;;;;21.73;20.60;;;17.50;90.20;;;;;;5047399;28;20471;-73
2021/08/01 03:50:49;;;;;;;22.60;20.97;;;17.50;90.20;;;;;;5041369;28;20469;-73
2021/08/01 03:53:16;;;;;;;22.73;21.27;;;17.50;90.30;;;;;;5047249;28;20560;-73
2021/08/01 03:55:42;;;;;;;22.43;21.03;;;17.50;90.40;;;;;;5045449;28;20821;-73
2021/08/01 03:58:09;;;;;;;22.33;21.00;;;17.50;90.40;;;;;;5040186;28;20485;-73
2021/08/01 04:00:36;;;;;;;22.30;21.00;;;17.50;90.50;;;;;;5042687;28;20466;-73
2021/08/01 04:03:03;;;;;;;22.17;20.93;;;17.50;90.50;;;;;;5033549;28;20455;-73
2021/08/01 04:05:30;;;;;;;23.77;22.27;;;17.50;90.60;;;;;;5040790;28;20470;-73
2021/08/01 04:07:58;;;;;;;24.70;23.10;;;17.50;90.50;;;;;;5040820;28;20525;-73
2021/08/01 04:10:25;;;;;;;23.70;22.20;;;17.50;90.50;;;;;;5041875;28;20470;-73
2021/08/01 04:12:52;;;;;;;22.80;21.30;;;17.50;90.60;;;;;;5035676;28;20573;-73
2021/08/01 04:15:19;;;;;;;22.73;21.37;;;17.40;90.50;;;;;;5034476;28;20459;-73
2021/08/01 04:17:46;;;;;;;22.80;21.20;;;17.50;90.60;;;;;;5041296;28;20578;-73
2021/08/01 04:20:15;;;;;;;22.63;21.33;;;17.50;90.60;;;;;;5043304;28;20977;-73
2021/08/01 04:22:42;;;;;;;26.27;24.27;;;17.50;90.50;;;;;;5029393;28;20462;-73
2021/08/01 04:25:11;;;;;;;22.37;21.03;;;17.50;90.70;;;;;;5041490;28;20470;-73
2021/08/01 04:27:38;;;;;;;22.40;21.20;;;17.50;90.50;;;;;;5038068;28;20573;-73
2021/08/01 04:30:06;;;;;;;21.80;20.50;;;17.50;90.70;;;;;;5046618;28;20456;-73
2021/08/01 04:32:33;;;;;;;24.37;22.40;;;17.50;90.90;;;;;;5047964;28;20534;-73
2021/08/01 04:35:00;;;;;;;21.33;20.10;;;17.50;91.00;;;;;;5034184;28;20542;-73
2021/08/01 04:37:27;;;;;;;22.47;21.07;;;17.50;90.90;;;;;;5034926;28;20475;-73
2021/08/01 04:39:54;;;;;;;23.20;21.90;;;17.50;90.70;;;;;;5043280;28;20454;-73
2021/08/01 04:42:22;;;;;;;22.87;21.67;;;17.50;90.90;;;;;;5039298;28;20466;-73
2021/08/01 04:44:49;;;;;;;21.80;20.60;;;17.50;90.90;;;;;;5050965;28;20955;-73
2021/08/01 04:47:16;;;;;;;21.73;20.43;;;17.60;90.70;;;;;;5039809;28;20495;-73
2021/08/01 04:49:43;;;;;;;22.03;20.53;;;17.50;90.90;;;;;;5036263;28;20821;-73
2021/08/01 04:52:16;;;;;;;22.20;20.80;;;17.50;91.10;;;;;;5047508;28;20994;-73
2021/08/01 04:54:44;;;;;;;21.87;20.57;;;17.50;91.40;;;;;;5050390;28;20464;-73
2021/08/01 04:57:11;;;;;;;22.53;20.93;;;17.50;91.30;;;;;;5042502;28;20518;-73
2021/08/01 04:59:39;;;;;;;22.40;21.20;;;17.50;91.00;;;;;;5042680;28;20553;-73
2021/08/01 05:02:06;;;;;;;22.90;21.57;;;17.50;91.50;;;;;;5034981;28;20950;-73
2021/08/01 05:04:33;;;;;;;22.40;20.90;;;17.50;91.40;;;;;;5044595;28;20501;-73
2021/08/01 05:07:00;;;;;;;21.87;20.67;;;17.50;91.40;;;;;;5037319;28;20471;-73
2021/08/01 05:09:27;;;;;;;21.43;20.20;;;17.60;91.10;;;;;;5050324;28;20447;-73
2021/08/01 05:11:54;;;;;;;22.20;20.90;;;17.60;90.90;;;;;;5042320;28;20550;-73
2021/08/01 05:14:21;;;;;;;22.20;20.90;;;17.60;90.70;;;;;;5043905;28;20448;-73
2021/08/01 05:16:49;;;;;;;23.13;21.73;;;17.70;90.30;;;;;;5045249;28;20476;-73
2021/08/01 05:19:16;;;;;;;25.23;23.20;;;17.60;90.20;;;;;;5039468;28;20812;-73
2021/08/01 05:21:43;;;;;;;22.30;21.13;;;17.60;90.30;;;;;;5045009;28;20451;-73
2021/08/01 05:24:10;;;;;;;21.87;20.67;;;17.60;90.20;;;;;;5035805;28;20462;-73
2021/08/01 05:26:37;;;;;;;22.90;21.60;;;17.70;89.90;;;;;;5043911;28;20577;-73
2021/08/01 05:29:04;;;;;;;23.60;22.30;;;17.70;89.70;;;;;;5047725;28;20455;-73
2021/08/01 05:31:31;;;;;;;22.30;21.10;;;17.80;89.40;;;;;;5036183;28;20456;-73
2021/08/01 05:33:59;;;;;;;21.90;20.80;;;17.80;89.30;;;;;;5046561;28;20975;-73
2021/08/01 05:36:26;;;;;;;22.13;21.03;;;17.80;89.20;;;;;;5042778;28;20586;-73
2021/08/01 05:38:52;;;;;;;22.70;21.23;;;17.90;89.30;;;;;;5048418;28;20487;-73
2021/08/01 05:41:21;;;;;;;22.57;21.37;;;17.90;88.80;;;;;;5046395;28;20465;-73
2021/08/01 05:43:48;;;;;;;23.30;22.10;;;17.80;88.60;;;;;;5040786;28;20469;-73
2021/08/01 05:46:14;;;;;;;21.63;20.33;;;17.80;89.30;;;;;;5040424;28;20507;-73
2021/08/01 05:48:41;;;;;;;22.60;21.40;;;17.80;89.50;;;;;;5045768;28;20994;-73
2021/08/01 05:51:10;;;;;;;22.27;21.10;;;17.80;89.70;;;;;;5045368;28;20817;-73
2021/08/01 05:53:37;;;;;;;23.73;22.37;;;17.90;89.60;;;;;;5047112;28;20457;-73
2021/08/01 05:56:08;;;;;;;23.43;22.13;;;18.00;89.40;;;;;;5041400;28;20489;-73
2021/08/01 05:58:35;;;;;;;22.03;20.83;;;18.00;89.40;;;;;;5033292;28;20827;-73
2021/08/01 06:01:07;;;;;;;23.47;22.07;;;18.00;89.60;;;;;;5046162;28;20461;-73
2021/08/01 06:03:34;;;;;;;23.03;21.57;;;18.10;89.60;;;;;;5035913;28;20525;-73
2021/08/01 06:06:10;;;;;;;21.67;20.57;;;18.20;89.40;;;;;;5044414;28;20802;-73
2021/08/01 06:08:37;;;;;;;22.63;21.20;;;18.30;89.00;;;;;;5038977;28;20461;-73
2021/08/01 06:11:04;;;;;;;21.70;20.50;;;18.40;88.80;;;;;;5047097;28;20451;-73
2021/08/01 06:13:31;;;;;;;22.80;21.60;;;18.40;88.80;;;;;;5044921;28;20498;-73
2021/08/01 06:15:58;;;;;;;24.40;22.70;;;18.40;88.60;;;;;;5044008;28;20471;-73
2021/08/01 06:18:25;;;;;;;22.60;21.37;;;18.50;88.00;;;;;;5042710;28;20554;-73
2021/08/01 06:21:02;;;;;;;22.47;21.20;;;18.50;87.60;;;;;;5041818;28;20558;-73
2021/08/01 06:23:30;;;;;;;23.13;21.77;;;18.60;87.40;;;;;;5036091;28;20503;-73
2021/08/01 06:25:57;;;;;;;23.97;22.47;;;18.60;87.00;;;;;;5043513;28;20502;-73
2021/08/01 06:28:24;;;;;;;23.70;22.40;;;18.70;86.90;;;;;;5042949;28;20444;-73
2021/08/01 06:30:51;;;;;;;23.20;22.00;;;18.70;86.70;;;;;;5040678;28;20457;-73
2021/08/01 06:33:18;;;;;;;22.97;21.67;;;18.80;86.70;;;;;;5046725;28;20450;-73
2021/08/01 06:35:45;;;;;;;23.13;21.73;;;18.80;86.60;;;;;;5044285;28;20461;-73
2021/08/01 06:38:12;;;;;;;22.60;21.40;;;18.90;86.60;;;;;;5040784;28;21267;-73
2021/08/01 06:40:40;;;;;;;24.23;22.83;;;18.90;86.90;;;;;;5048402;28;20545;-73
2021/08/01 06:43:07;;;;;;;22.60;21.30;;;18.90;86.70;;;;;;5042052;28;20471;-73
2021/08/01 06:45:34;;;;;;;24.07;22.73;;;19.00;86.90;;;;;;5041373;28;20459;-73
2021/08/01 06:48:01;;;;;;;22.93;21.70;;;19.00;86.80;;;;;;5037693;28;20536;-73
2021/08/01 06:50:28;;;;;;;23.20;21.80;;;19.10;86.30;;;;;;5041822;28;20489;-73
2021/08/01 06:52:55;;;;;;;22.03;20.93;;;19.30;85.90;;;;;;5044860;28;20574;-73
2021/08/01 06:55:22;;;;;;;23.30;22.00;;;19.40;85.30;;;;;;5047871;28;20462;-73
2021/08/01 06:57:50;;;;;;;23.60;22.10;;;19.50;85.20;;;;;;5045392;28;20489;-73
2021/08/01 07:00:20;;;;;;;24.70;23.20;;;19.50;85.50;;;;;;5047833;28;20544;-73
2021/08/01 07:02:51;;;;;;;24.43;23.03;;;19.60;85.20;;;;;;5033926;28;20537;-73
2021/08/01 07:05:18;;;;;;;24.33;22.87;;;19.70;83.70;;;;;;5045020;28;20462;-73
2021/08/01 07:07:45;;;;;;;23.60;22.00;;;19.80;83.10;;;;;;5048785;28;20474;-73
2021/08/01 07:10:12;;;;;;;24.13;22.70;;;19.80;83.00;;;;;;5042264;28;20464;-75
2021/08/01 07:12:42;;;;;;;25.50;23.90;;;19.70;82.50;;;;;;5042331;28;20466;-73
2021/08/01 07:15:12;;;;;;;25.40;24.00;;;19.60;81.50;;;;;;5041802;28;20455;-74
2021/08/01 07:17:39;;;;;;;25.10;23.60;;;19.40;81.70;;;;;;5043419;28;20562;-74
2021/08/01 07:20:09;;;;;;;26.13;24.60;;;19.20;81.20;;;;;;5044010;28;20477;-74
2021/08/01 07:22:36;;;;;;;24.77;23.50;;;19.10;81.70;;;;;;5046636;28;20882;-74
2021/08/01 07:25:04;;;;;;;25.53;24.03;;;19.00;82.20;;;;;;5042633;28;20457;-74
2021/08/01 07:27:31;;;;;;;25.90;24.50;;;19.10;82.40;;;;;;5045691;28;20483;-73
2021/08/01 07:29:58;;;;;;;25.00;23.50;;;19.10;82.90;;;;;;5034415;28;20543;-75
2021/08/01 07:32:26;;;;;;;24.90;23.40;;;19.20;83.60;;;;;;5041182;28;20463;-73
2021/08/01 07:34:53;;;;;;;25.73;24.13;;;19.20;83.00;;;;;;5044250;28;20465;-74
2021/08/01 07:37:20;;;;;;;24.73;23.33;;;19.20;83.10;;;;;;5041401;28;20490;-74
2021/08/01 07:39:47;;;;;;;26.53;25.03;;;19.30;82.90;;;;;;5041394;28;21317;-74
2021/08/01 07:42:14;;;;;;;25.10;23.50;;;19.20;83.50;;;;;;5040276;28;20459;-73
2021/08/01 07:44:49;;;;;;;23.70;22.37;;;19.20;83.70;;;;;;5044411;28;20458;-73
2021/08/01 07:47:17;;;;;;;26.77;25.27;;;19.10;84.50;;;;;;5034025;28;20475;-72
2021/08/01 07:49:45;;;;;;;23.13;21.70;;;19.00;84.80;;;;;;5044422;28;20450;-73
2021/08/01 07:52:12;;;;;;;25.00;23.50;;;18.80;83.90;;;;;;5047632;28;20475;-72
2021/08/01 07:54:40;;;;;;;26.10;24.40;;;18.50;85.60;;;;;;5039100;28;20483;-73
2021/08/01 07:57:07;;;;;;;24.00;22.63;;;18.40;86.00;;;;;;5031734;28;20467;-70
2021/08/01 07:59:34;;;;;;;23.63;22.33;;;18.30;86.60;;;;;;5033009;28;20479;-71
2021/08/01 08:02:01;;;;;;;25.27;23.70;;;18.20;87.00;;;;;;5041899;28;20451;-72
2021/08/01 08:04:28;;;;;;;23.30;22.07;;;18.20;86.40;;;;;;5043468;28;20463;-72
2021/08/01 08:06:56;;;;;;;23.80;22.50;;;18.30;86.20;;;;;;5038963;28;20478;-72
2021/08/01 08:09:26;;;;;;;23.30;22.00;;;18.20;86.60;;;;;;5037161;28;20469;-72
2021/08/01 08:11:53;;;;;;;23.40;22.10;;;18.30;86.60;;;;;;5052299;28;20509;-71
2021/08/01 08:14:19;;;;;;;23.80;22.50;;;18.40;86.60;;;;;;5048167;28;20466;-72
2021/08/01 08:16:46;;;;;;;25.17;23.60;;;18.40;87.10;;;;;;5051609;28;20926;-71
2021/08/01 08:19:13;;;;;;;24.77;23.27;;;18.50;87.30;;;;;;5043935;28;20480;-73
2021/08/01 08:21:40;;;;;;;23.27;21.97;;;18.60;86.80;;;;;;5044866;28;20456;-73
2021/08/01 08:24:09;;;;;;;24.80;23.30;;;18.80;86.90;;;;;;5049272;28;20463;-73
2021/08/01 08:26:36;;;;;;;24.30;23.00;;;18.90;86.60;;;;;;5050865;28;21038;-72
2021/08/01 08:29:02;;;;;;;25.20;23.70;;;19.10;85.80;;;;;;5049148;28;21044;-74
2021/08/01 08:31:29;;;;;;;23.33;21.90;;;19.20;85.30;;;;;;5049338;28;20455;-72
2021/08/01 08:33:56;;;;;;;23.53;22.17;;;19.20;85.30;;;;;;5047112;28;20458;-73
2021/08/01 08:36:24;;;;;;;23.53;22.03;;;19.30;85.10;;;;;;5040429;28;20483;-72
2021/08/01 08:38:51;;;;;;;23.97;22.57;;;19.40;85.10;;;;;;5041714;28;20561;-72
2021/08/01 08:41:22;;;;;;;23.50;22.00;;;19.50;85.30;;;;;;5040523;28;20464;-72
2021/08/01 08:43:49;;;;;;;24.23;22.83;;;19.50;84.60;;;;;;5046788;28;20459;-73
2021/08/01 08:46:18;;;;;;;23.47;22.23;;;19.60;84.40;;;;;;5047601;28;20475;-73
2021/08/01 08:48:46;;;;;;;25.97;24.37;;;19.80;83.70;;;;;;5050011;28;21039;-74
2021/08/01 08:51:13;;;;;;;25.13;23.73;;;19.90;83.20;;;;;;5044171;28;20473;-75
2021/08/01 08:53:43;;;;;;;25.03;23.73;;;20.10;81.80;;;;;;5043983;28;20542;-73
2021/08/01 08:56:11;;;;;;;24.73;23.43;;;20.10;79.80;;;;;;5044258;28;20485;-73
2021/08/01 08:58:43;;;;;;;25.93;24.47;;;20.00;79.40;;;;;;5042946;28;20489;-74
2021/08/01 09:01:10;;;;;;;26.20;24.63;;;20.00;79.80;;;;;;5046165;28;20474;-74
2021/08/01 09:03:36;;;;;;;29.90;28.07;;;20.10;79.80;;;;;;5040887;28;20470;-73
2021/08/01 09:06:04;;;;;;;25.23;23.83;;;20.10;80.60;;;;;;5042950;28;20486;-76
2021/08/01 09:08:31;;;;;;;24.67;23.23;;;20.20;80.10;;;;;;5045317;28;20473;-73
2021/08/01 09:10:58;;;;;;;25.40;23.80;;;20.30;79.80;;;;;;5043389;28;21039;-73
2021/08/01 09:13:49;;;;;;;26.20;24.67;;;20.50;79.60;;;;;;5046390;28;20494;-73
2021/08/01 09:16:18;;;;;;;27.03;25.53;;;20.70;79.60;;;;;;5045518;28;20475;-72
2021/08/01 09:18:46;;;;;;;29.00;27.13;;;20.90;79.30;;;;;;5050167;28;20482;-73
2021/08/01 09:21:29;;;;;;;28.93;27.23;;;21.10;78.80;;;;;;5048595;28;20455;-73
2021/08/01 09:23:57;;;;;;;26.77;25.37;;;21.40;78.90;;;;;;5038137;28;20447;-73
2021/08/01 09:26:24;;;;;;;25.90;24.50;;;21.60;78.20;;;;;;5036703;28;20494;-73
2021/08/01 09:29:03;;;;;;;26.97;25.37;;;21.70;78.10;;;;;;5044544;28;21221;-72
2021/08/01 09:31:30;;;;;;;26.57;25.07;;;21.80;78.00;;;;;;5042283;28;20474;-73
2021/08/01 09:33:58;;;;;;;28.30;26.63;;;21.70;78.10;;;;;;5040271;28;20450;-73
2021/08/01 09:36:27;;;;;;;26.40;24.90;;;21.80;77.60;;;;;;5041163;28;20518;-72
2021/08/01 09:38:55;;;;;;;27.03;25.43;;;21.70;77.20;;;;;;5042530;28;20481;-73
2021/08/01 09:41:24;;;;;;;27.73;26.17;;;21.70;76.70;;;;;;5046731;28;20456;-72
2021/08/01 09:43:52;;;;;;;28.30;26.60;;;21.70;76.00;;;;;;5038411;28;20460;-72
2021/08/01 09:46:21;;;;;;;27.23;25.63;;;21.60;76.50;;;;;;5040684;28;20479;-72
2021/08/01 09:49:09;;;;;;;28.67;27.07;;;21.60;77.10;;;;;;5046488;28;20463;-72
2021/08/01 09:51:39;;;;;;;26.53;25.03;;;21.60;77.30;;;;;;5039644;28;20485;-72
2021/08/01 09:54:06;;;;;;;25.37;24.00;;;21.40;77.70;;;;;;5048551;28;20787;-72
2021/08/01 09:56:33;;;;;;;28.60;26.90;;;21.40;78.20;;;;;;5044270;28;20519;-73
2021/08/01 09:59:00;;;;;;;25.93;24.53;;;21.40;78.00;;;;;;5047875;28;20479;-73
2021/08/01 10:01:30;;;;;;;26.67;25.17;;;21.40;78.40;;;;;;5047322;28;20450;-73
2021/08/01 10:03:57;;;;;;;26.87;25.27;;;21.50;77.80;;;;;;5036272;28;20510;-73
2021/08/01 10:06:24;;;;;;;26.27;24.63;;;21.60;78.10;;;;;;5040473;28;20852;-73
2021/08/01 10:08:53;;;;;;;29.07;26.93;;;21.60;78.80;;;;;;5044240;28;20540;-73
2021/08/01 10:11:21;;;;;;;26.10;24.50;;;21.60;78.90;;;;;;5039182;28;20851;-72
2021/08/01 10:13:50;;;;;;;25.50;24.20;;;21.80;79.40;;;;;;5037252;28;20460;-73
2021/08/01 10:16:17;;;;;;;26.07;24.77;;;22.10;79.30;;;;;;5036502;28;20484;-73
2021/08/01 10:18:48;;;;;;;27.03;25.53;;;22.30;77.10;;;;;;5037320;28;20475;-73
2021/08/01 10:21:19;;;;;;;25.40;24.10;;;22.50;76.70;;;;;;5043186;28;20471;-73
2021/08/01 10:23:47;;;;;;;25.40;24.00;;;22.60;77.30;;;;;;5039066;28;20970;-73
2021/08/01 10:26:15;;;;;;;27.40;25.80;;;22.80;76.20;;;;;;5039275;28;21033;-73
2021/08/01 10:28:53;;;;;;;27.60;25.80;;;23.10;75.20;;;;;;5040675;28;20460;-73
2021/08/01 10:31:26;;;;;;;27.63;26.23;;;23.40;73.00;;;;;;5035929;28;20451;-73
2021/08/01 10:34:04;;;;;;;30.10;28.40;;;23.60;72.30;;;;;;5034405;28;20556;-73
2021/08/01 10:36:33;;;;;;;30.77;28.83;;;23.80;70.70;;;;;;5035148;28;20481;-73
2021/08/01 10:39:03;;;;;;;26.70;25.30;;;23.80;70.70;;;;;;5034539;28;20480;-73
2021/08/01 10:41:34;;;;;;;26.57;25.17;;;23.80;69.40;;;;;;5044202;28;20455;-72
2021/08/01 10:44:06;;;;;;;25.37;24.07;;;23.80;66.90;;;;;;5043234;28;20775;-72
2021/08/01 10:46:34;;;;;;;28.10;26.50;;;23.80;67.10;;;;;;5035953;28;20487;-72
2021/08/01 10:49:04;;;;;;;28.83;27.13;;;23.60;68.00;;;;;;5029603;28;20932;-72
2021/08/01 10:51:32;;;;;;;25.90;24.50;;;23.60;68.10;;;;;;5032123;28;20950;-72
2021/08/01 10:54:32;;;;;;;27.70;26.30;;;23.70;68.20;;;;;;5039578;28;20861;-72
2021/08/01 10:57:15;;;;;;;27.90;25.87;;;23.90;68.10;;;;;;5029729;28;20477;-72
2021/08/01 11:00:04;;;;;;;28.77;27.27;;;24.00;67.10;;;;;;5036366;28;20481;-72
2021/08/01 11:02:32;;;;;;;25.53;24.13;;;24.20;67.20;;;;;;5030347;28;21018;-72
2021/08/01 11:05:33;;;;;;;27.97;26.37;;;24.00;67.30;;;;;;5035891;28;20478;-72
2021/08/01 11:08:05;;;;;;;28.10;26.60;;;24.20;66.80;;;;;;5036468;28;20790;-72
2021/08/01 11:10:32;;;;;;;27.80;26.20;;;24.10;67.40;;;;;;5030627;28;20459;-72
2021/08/01 11:12:59;;;;;;;26.87;25.40;;;24.10;67.30;;;;;;5030938;28;20463;-72
2021/08/01 11:15:47;;;;;;;31.67;29.87;;;24.30;66.80;;;;;;5035086;28;20451;-72
2021/08/01 11:18:14;;;;;;;28.73;27.13;;;24.40;66.70;;;;;;5032889;28;20993;-72
2021/08/01 11:20:52;;;;;;;27.73;26.23;;;24.50;66.10;;;;;;5039476;28;20475;-75
2021/08/01 11:23:20;;;;;;;29.33;27.80;;;24.50;65.70;;;;;;5030933;28;21231;-73
2021/08/01 11:26:12;;;;;;;27.70;26.10;;;24.60;65.70;;;;;;5032665;28;20551;-73
2021/08/01 11:28:41;;;;;;;27.10;25.50;;;24.70;64.90;;;;;;5037152;28;20475;-73
2021/08/01 11:31:19;;;;;;;27.20;25.60;;;24.80;64.80;;;;;;5035593;28;20452;-73
2021/08/01 11:33:48;;;;;;;27.23;25.53;;;25.00;64.70;;;;;;5036793;28;20463;-74
2021/08/01 11:36:27;;;;;;;28.50;26.80;;;24.90;64.10;;;;;;5035814;28;20479;-70
2021/08/01 11:39:10;;;;;;;31.00;29.10;;;24.90;64.40;;;;;;5033520;28;20853;-76
2021/08/01 11:41:39;;;;;;;28.00;26.40;;;24.70;64.30;;;;;;5037429;28;20784;-74
2021/08/01 11:44:09;;;;;;;27.70;26.10;;;24.70;63.80;;;;;;5028506;28;20460;-72
2021/08/01 11:47:09;;;;;;;31.40;29.50;;;24.20;64.80;;;;;;5034142;28;20468;-72
2021/08/01 11:49:44;;;;;;;29.23;27.43;;;24.20;64.90;;;;;;5039707;28;20463;-74
2021/08/01 11:52:13;;;;;;;30.33;28.63;;;24.40;64.60;;;;;;5036522;28;20474;-75
2021/08/01 11:54:42;;;;;;;29.97;28.10;;;24.60;63.00;;;;;;5035433;28;20454;-75
2021/08/01 11:57:10;;;;;;;28.37;26.57;;;24.30;64.40;;;;;;5036563;28;20569;-75
2021/08/01 11:59:39;;;;;;;30.03;28.33;;;24.40;65.00;;;;;;5035180;28;20487;-74
2021/08/01 12:02:10;;;;;;;31.10;29.30;;;24.50;64.60;;;;;;5036878;28;20952;-74
2021/08/01 12:04:37;;;;;;;31.53;29.60;;;24.60;65.00;;;;;;5031588;28;20466;-74
2021/08/01 12:07:05;;;;;;;30.43;28.63;;;24.60;65.70;;;;;;5033034;28;20480;-74
2021/08/01 12:09:39;;;;;;;31.83;30.03;;;24.70;65.90;;;;;;5038211;28;20464;-74
2021/08/01 12:12:08;;;;;;;27.87;26.37;;;24.80;65.70;;;;;;5033657;28;20995;-74
2021/08/01 12:14:36;;;;;;;29.33;27.60;;;24.70;65.80;;;;;;5035687;28;20482;-73
2021/08/01 12:17:06;;;;;;;28.67;27.13;;;24.70;66.30;;;;;;5034501;28;20479;-74
2021/08/01 12:19:37;;;;;;;33.93;31.83;;;24.80;66.60;;;;;;5036596;28;20832;-74
2021/08/01 12:22:09;;;;;;;28.53;26.90;;;24.80;66.00;;;;;;5036645;28;20456;-74
2021/08/01 12:24:39;;;;;;;31.00;29.20;;;24.80;66.30;;;;;;5034430;28;20463;-74
2021/08/01 12:27:09;;;;;;;32.67;30.37;;;24.70;66.60;;;;;;5032485;28;20511;-73
2021/08/01 12:29:39;;;;;;;29.50;27.77;;;24.50;66.80;;;;;;5035474;28;20890;-74
2021/08/01 12:32:23;;;;;;;37.43;34.73;;;24.50;66.10;;;;;;5033223;28;20450;-75
2021/08/01 12:34:51;;;;;;;28.23;26.43;;;24.60;66.40;;;;;;5034769;28;20491;-74
2021/08/01 12:37:18;;;;;;;27.23;25.63;;;24.60;66.70;;;;;;5035108;28;20482;-74
2021/08/01 12:39:49;;;;;;;30.50;28.80;;;24.60;67.20;;;;;;5032562;28;20486;-74
2021/08/01 12:42:17;;;;;;;28.77;27.13;;;24.70;66.20;;;;;;5033944;28;20554;-74